sensor_id;sensor_type;location;lat;lon;timestamp;temperature;humidity
48728;DHT22;34527;45.618;5.130;2022-11-25T00:01:18;8.70;99.90
48728;DHT22;34527;45.618;5.130;2022-11-25T00:03:45;8.70;99.90
48728;DHT22;34527;45.618;5.130;2022-11-25T00:06:22;8.70;99.90
48728;DHT22;34527;45.618;5.130;2022-11-25T00:08:56;8.70;99.90
48728;DHT22;34527;45.618;5.130;2022-11-25T00:11:23;8.70;99.90
48728;DHT22;34527;45.618;5.130;2022-11-25T00:13:50;8.70;99.90
48728;DHT22;34527;45.618;5.130;2022-11-25T00:16:18;8.70;99.90
48728;DHT22;34527;45.618;5.130;2022-11-25T00:18:46;8.70;99.90
48728;DHT22;34527;45.618;5.130;2022-11-25T00:21:16;8.70;99.90
48728;DHT22;34527;45.618;5.130;2022-11-25T00:23:42;8.70;99.90
48728;DHT22;34527;45.618;5.130;2022-11-25T00:26:14;8.70;99.90
48728;DHT22;34527;45.618;5.130;2022-11-25T00:28:41;8.70;99.90
48728;DHT22;34527;45.618;5.130;2022-11-25T00:31:19;8.70;99.90
48728;DHT22;34527;45.618;5.130;2022-11-25T00:33:45;8.60;99.90
48728;DHT22;34527;45.618;5.130;2022-11-25T00:36:22;8.60;99.90
48728;DHT22;34527;45.618;5.130;2022-11-25T00:38:53;8.60;99.90
48728;DHT22;34527;45.618;5.130;2022-11-25T00:41:19;8.60;99.90
48728;DHT22;34527;45.618;5.130;2022-11-25T00:44:04;8.60;99.90
48728;DHT22;34527;45.618;5.130;2022-11-25T00:46:48;8.60;99.90
48728;DHT22;34527;45.618;5.130;2022-11-25T00:49:14;8.60;99.90
48728;DHT22;34527;45.618;5.130;2022-11-25T00:51:40;8.60;99.90
48728;DHT22;34527;45.618;5.130;2022-11-25T00:54:06;8.70;99.90
48728;DHT22;34527;45.618;5.130;2022-11-25T00:56:32;8.60;99.90
48728;DHT22;34527;45.618;5.130;2022-11-25T00:58:57;8.60;99.90
48728;DHT22;34527;45.618;5.130;2022-11-25T01:01:23;8.60;99.90
48728;DHT22;34527;45.618;5.130;2022-11-25T01:03:51;8.60;99.90
48728;DHT22;34527;45.618;5.130;2022-11-25T01:06:17;8.60;99.90
48728;DHT22;34527;45.618;5.130;2022-11-25T01:08:44;8.70;99.90
48728;DHT22;34527;45.618;5.130;2022-11-25T01:11:16;8.80;99.90
48728;DHT22;34527;45.618;5.130;2022-11-25T01:13:42;8.80;99.90
48728;DHT22;34527;45.618;5.130;2022-11-25T01:16:13;8.90;99.90
48728;DHT22;34527;45.618;5.130;2022-11-25T01:18:40;9.00;99.90
48728;DHT22;34527;45.618;5.130;2022-11-25T01:21:10;9.00;99.90
48728;DHT22;34527;45.618;5.130;2022-11-25T01:23:37;9.20;99.90
48728;DHT22;34527;45.618;5.130;2022-11-25T01:26:05;9.30;99.90
48728;DHT22;34527;45.618;5.130;2022-11-25T01:28:32;9.30;99.90
48728;DHT22;34527;45.618;5.130;2022-11-25T01:31:06;9.40;99.90
48728;DHT22;34527;45.618;5.130;2022-11-25T01:33:32;9.40;99.90
48728;DHT22;34527;45.618;5.130;2022-11-25T01:36:06;9.50;99.90
48728;DHT22;34527;45.618;5.130;2022-11-25T01:38:33;9.60;99.90
48728;DHT22;34527;45.618;5.130;2022-11-25T01:40:59;9.60;99.90
48728;DHT22;34527;45.618;5.130;2022-11-25T01:43:26;9.70;99.90
48728;DHT22;34527;45.618;5.130;2022-11-25T01:46:14;9.70;99.90
48728;DHT22;34527;45.618;5.130;2022-11-25T01:51:39;9.80;99.90
48728;DHT22;34527;45.618;5.130;2022-11-25T01:54:06;9.80;99.90
48728;DHT22;34527;45.618;5.130;2022-11-25T01:56:48;9.90;99.90
48728;DHT22;34527;45.618;5.130;2022-11-25T01:59:15;9.90;99.90
48728;DHT22;34527;45.618;5.130;2022-11-25T02:01:41;10.00;99.90
48728;DHT22;34527;45.618;5.130;2022-11-25T02:04:08;9.90;99.90
48728;DHT22;34527;45.618;5.130;2022-11-25T02:06:39;10.00;99.90
48728;DHT22;34527;45.618;5.130;2022-11-25T02:09:07;10.00;99.90
48728;DHT22;34527;45.618;5.130;2022-11-25T02:11:39;10.00;99.90
48728;DHT22;34527;45.618;5.130;2022-11-25T02:14:07;10.00;99.90
48728;DHT22;34527;45.618;5.130;2022-11-25T02:16:34;10.00;99.90
48728;DHT22;34527;45.618;5.130;2022-11-25T02:19:00;9.90;99.90
48728;DHT22;34527;45.618;5.130;2022-11-25T02:21:37;9.90;99.90
48728;DHT22;34527;45.618;5.130;2022-11-25T02:24:19;9.90;99.90
48728;DHT22;34527;45.618;5.130;2022-11-25T02:26:46;9.80;99.90
48728;DHT22;34527;45.618;5.130;2022-11-25T02:29:12;9.80;99.90
48728;DHT22;34527;45.618;5.130;2022-11-25T02:31:38;9.80;99.90
48728;DHT22;34527;45.618;5.130;2022-11-25T02:34:04;9.80;99.90
48728;DHT22;34527;45.618;5.130;2022-11-25T02:36:30;9.80;99.90
48728;DHT22;34527;45.618;5.130;2022-11-25T02:38:58;9.80;99.90
48728;DHT22;34527;45.618;5.130;2022-11-25T02:41:31;9.80;99.90
48728;DHT22;34527;45.618;5.130;2022-11-25T02:43:58;9.70;99.90
48728;DHT22;34527;45.618;5.130;2022-11-25T02:46:26;9.80;99.90
48728;DHT22;34527;45.618;5.130;2022-11-25T02:48:54;9.80;99.90
48728;DHT22;34527;45.618;5.130;2022-11-25T02:51:23;9.80;99.90
48728;DHT22;34527;45.618;5.130;2022-11-25T02:53:49;9.80;99.90
48728;DHT22;34527;45.618;5.130;2022-11-25T02:56:17;9.80;99.90
48728;DHT22;34527;45.618;5.130;2022-11-25T02:58:43;9.70;99.90
48728;DHT22;34527;45.618;5.130;2022-11-25T03:01:10;9.70;99.90
48728;DHT22;34527;45.618;5.130;2022-11-25T03:03:36;9.70;99.90
48728;DHT22;34527;45.618;5.130;2022-11-25T03:06:02;9.70;99.90
48728;DHT22;34527;45.618;5.130;2022-11-25T03:08:28;9.70;99.90
48728;DHT22;34527;45.618;5.130;2022-11-25T03:10:54;9.70;99.90
48728;DHT22;34527;45.618;5.130;2022-11-25T03:13:20;9.60;99.90
48728;DHT22;34527;45.618;5.130;2022-11-25T03:15:46;9.50;99.90
48728;DHT22;34527;45.618;5.130;2022-11-25T03:18:12;9.60;99.90
48728;DHT22;34527;45.618;5.130;2022-11-25T03:20:38;9.50;99.90
48728;DHT22;34527;45.618;5.130;2022-11-25T03:23:05;9.60;99.90
48728;DHT22;34527;45.618;5.130;2022-11-25T03:25:32;9.50;99.90
48728;DHT22;34527;45.618;5.130;2022-11-25T03:27:59;9.50;99.90
48728;DHT22;34527;45.618;5.130;2022-11-25T03:30:26;9.50;99.90
48728;DHT22;34527;45.618;5.130;2022-11-25T03:32:52;9.50;99.90
48728;DHT22;34527;45.618;5.130;2022-11-25T03:35:18;9.50;99.90
48728;DHT22;34527;45.618;5.130;2022-11-25T03:37:44;9.50;99.90
48728;DHT22;34527;45.618;5.130;2022-11-25T03:40:12;9.40;99.90
48728;DHT22;34527;45.618;5.130;2022-11-25T03:42:38;9.40;99.90
48728;DHT22;34527;45.618;5.130;2022-11-25T03:45:04;9.30;99.90
48728;DHT22;34527;45.618;5.130;2022-11-25T03:47:31;9.20;99.90
48728;DHT22;34527;45.618;5.130;2022-11-25T03:49:57;9.30;99.90
48728;DHT22;34527;45.618;5.130;2022-11-25T03:52:23;9.20;99.90
48728;DHT22;34527;45.618;5.130;2022-11-25T03:54:49;9.20;99.90
48728;DHT22;34527;45.618;5.130;2022-11-25T03:57:14;9.10;99.90
48728;DHT22;34527;45.618;5.130;2022-11-25T03:59:40;9.10;99.90
48728;DHT22;34527;45.618;5.130;2022-11-25T04:02:06;9.00;99.90
48728;DHT22;34527;45.618;5.130;2022-11-25T04:04:32;9.00;99.90
48728;DHT22;34527;45.618;5.130;2022-11-25T04:06:58;8.90;99.90
48728;DHT22;34527;45.618;5.130;2022-11-25T04:09:24;8.80;99.90
48728;DHT22;34527;45.618;5.130;2022-11-25T04:11:51;8.80;99.90
48728;DHT22;34527;45.618;5.130;2022-11-25T04:14:35;8.70;99.90
48728;DHT22;34527;45.618;5.130;2022-11-25T04:17:01;8.60;99.90
48728;DHT22;34527;45.618;5.130;2022-11-25T04:19:27;8.50;99.90
48728;DHT22;34527;45.618;5.130;2022-11-25T04:21:53;8.40;99.90
48728;DHT22;34527;45.618;5.130;2022-11-25T04:24:19;8.40;99.90
48728;DHT22;34527;45.618;5.130;2022-11-25T04:26:45;8.30;99.90
48728;DHT22;34527;45.618;5.130;2022-11-25T04:29:11;8.30;99.90
48728;DHT22;34527;45.618;5.130;2022-11-25T04:31:37;8.20;99.90
48728;DHT22;34527;45.618;5.130;2022-11-25T04:34:04;8.10;99.90
48728;DHT22;34527;45.618;5.130;2022-11-25T04:36:30;8.10;99.90
48728;DHT22;34527;45.618;5.130;2022-11-25T04:38:56;8.10;99.90
48728;DHT22;34527;45.618;5.130;2022-11-25T04:41:22;8.10;99.90
48728;DHT22;34527;45.618;5.130;2022-11-25T04:43:48;7.90;99.90
48728;DHT22;34527;45.618;5.130;2022-11-25T04:46:21;7.90;99.90
48728;DHT22;34527;45.618;5.130;2022-11-25T04:48:49;7.90;99.90
48728;DHT22;34527;45.618;5.130;2022-11-25T04:51:15;7.90;99.90
48728;DHT22;34527;45.618;5.130;2022-11-25T04:53:40;7.90;99.90
48728;DHT22;34527;45.618;5.130;2022-11-25T04:56:10;7.90;99.90
48728;DHT22;34527;45.618;5.130;2022-11-25T04:58:40;7.90;99.90
48728;DHT22;34527;45.618;5.130;2022-11-25T05:01:24;7.90;99.90
48728;DHT22;34527;45.618;5.130;2022-11-25T05:03:51;7.80;99.90
48728;DHT22;34527;45.618;5.130;2022-11-25T05:06:17;7.90;99.90
48728;DHT22;34527;45.618;5.130;2022-11-25T05:08:46;7.70;99.90
48728;DHT22;34527;45.618;5.130;2022-11-25T05:11:12;7.60;99.90
48728;DHT22;34527;45.618;5.130;2022-11-25T05:13:38;7.60;99.90
48728;DHT22;34527;45.618;5.130;2022-11-25T05:16:04;7.50;99.90
48728;DHT22;34527;45.618;5.130;2022-11-25T05:18:30;7.50;99.90
48728;DHT22;34527;45.618;5.130;2022-11-25T05:21:01;7.50;99.90
48728;DHT22;34527;45.618;5.130;2022-11-25T05:23:27;7.50;99.90
48728;DHT22;34527;45.618;5.130;2022-11-25T05:26:01;7.50;99.90
48728;DHT22;34527;45.618;5.130;2022-11-25T05:28:28;7.40;99.90
48728;DHT22;34527;45.618;5.130;2022-11-25T05:30:54;7.40;99.90
48728;DHT22;34527;45.618;5.130;2022-11-25T05:33:20;7.40;99.90
48728;DHT22;34527;45.618;5.130;2022-11-25T05:36:06;7.40;99.90
48728;DHT22;34527;45.618;5.130;2022-11-25T05:38:32;7.40;99.90
48728;DHT22;34527;45.618;5.130;2022-11-25T05:41:03;7.40;99.90
48728;DHT22;34527;45.618;5.130;2022-11-25T05:43:30;7.40;99.90
48728;DHT22;34527;45.618;5.130;2022-11-25T05:45:56;7.30;99.90
48728;DHT22;34527;45.618;5.130;2022-11-25T05:48:22;7.40;99.90
48728;DHT22;34527;45.618;5.130;2022-11-25T05:50:48;7.40;99.90
48728;DHT22;34527;45.618;5.130;2022-11-25T05:53:14;7.30;99.90
48728;DHT22;34527;45.618;5.130;2022-11-25T05:55:42;7.30;99.90
48728;DHT22;34527;45.618;5.130;2022-11-25T05:58:08;7.20;99.90
48728;DHT22;34527;45.618;5.130;2022-11-25T06:00:34;7.20;99.90
48728;DHT22;34527;45.618;5.130;2022-11-25T06:03:00;7.20;99.90
48728;DHT22;34527;45.618;5.130;2022-11-25T06:05:26;7.10;99.90
48728;DHT22;34527;45.618;5.130;2022-11-25T06:07:52;7.00;99.90
48728;DHT22;34527;45.618;5.130;2022-11-25T06:10:18;7.00;99.90
48728;DHT22;34527;45.618;5.130;2022-11-25T06:12:45;6.90;99.90
48728;DHT22;34527;45.618;5.130;2022-11-25T06:15:11;6.90;99.90
48728;DHT22;34527;45.618;5.130;2022-11-25T06:17:39;6.80;99.90
48728;DHT22;34527;45.618;5.130;2022-11-25T06:20:08;6.80;99.90
48728;DHT22;34527;45.618;5.130;2022-11-25T06:22:34;6.70;99.90
48728;DHT22;34527;45.618;5.130;2022-11-25T06:24:59;6.70;99.90
48728;DHT22;34527;45.618;5.130;2022-11-25T06:27:25;6.70;99.90
48728;DHT22;34527;45.618;5.130;2022-11-25T06:29:51;6.70;99.90
48728;DHT22;34527;45.618;5.130;2022-11-25T06:32:17;6.70;99.90
48728;DHT22;34527;45.618;5.130;2022-11-25T06:34:43;6.70;99.90
48728;DHT22;34527;45.618;5.130;2022-11-25T06:37:09;6.70;99.90
48728;DHT22;34527;45.618;5.130;2022-11-25T06:39:35;6.70;99.90
48728;DHT22;34527;45.618;5.130;2022-11-25T06:42:00;6.60;99.90
48728;DHT22;34527;45.618;5.130;2022-11-25T06:44:26;6.60;99.90
48728;DHT22;34527;45.618;5.130;2022-11-25T06:46:52;6.70;99.90
48728;DHT22;34527;45.618;5.130;2022-11-25T06:49:29;6.80;99.90
48728;DHT22;34527;45.618;5.130;2022-11-25T06:51:55;6.80;99.90
48728;DHT22;34527;45.618;5.130;2022-11-25T06:54:21;6.90;99.90
48728;DHT22;34527;45.618;5.130;2022-11-25T06:56:46;6.90;99.90
48728;DHT22;34527;45.618;5.130;2022-11-25T06:59:19;6.80;99.90
48728;DHT22;34527;45.618;5.130;2022-11-25T07:01:45;6.80;99.90
48728;DHT22;34527;45.618;5.130;2022-11-25T07:04:11;6.80;99.90
48728;DHT22;34527;45.618;5.130;2022-11-25T07:06:37;6.80;99.90
48728;DHT22;34527;45.618;5.130;2022-11-25T07:09:03;6.80;99.90
48728;DHT22;34527;45.618;5.130;2022-11-25T07:11:31;6.80;99.90
48728;DHT22;34527;45.618;5.130;2022-11-25T07:14:00;6.80;99.90
48728;DHT22;34527;45.618;5.130;2022-11-25T07:16:27;6.80;99.90
48728;DHT22;34527;45.618;5.130;2022-11-25T07:18:53;6.90;99.90
48728;DHT22;34527;45.618;5.130;2022-11-25T07:21:22;6.80;99.90
48728;DHT22;34527;45.618;5.130;2022-11-25T07:23:49;7.00;99.90
48728;DHT22;34527;45.618;5.130;2022-11-25T07:26:25;6.90;99.90
48728;DHT22;34527;45.618;5.130;2022-11-25T07:28:52;7.00;99.90
48728;DHT22;34527;45.618;5.130;2022-11-25T07:31:24;7.00;99.90
48728;DHT22;34527;45.618;5.130;2022-11-25T07:33:52;7.10;99.90
48728;DHT22;34527;45.618;5.130;2022-11-25T07:36:19;7.20;99.90
48728;DHT22;34527;45.618;5.130;2022-11-25T07:38:45;7.30;99.90
48728;DHT22;34527;45.618;5.130;2022-11-25T07:41:13;7.30;99.90
48728;DHT22;34527;45.618;5.130;2022-11-25T07:43:42;7.40;99.90
48728;DHT22;34527;45.618;5.130;2022-11-25T07:46:14;7.40;99.90
48728;DHT22;34527;45.618;5.130;2022-11-25T07:48:41;7.50;99.90
48728;DHT22;34527;45.618;5.130;2022-11-25T07:53:45;7.70;99.90
48728;DHT22;34527;45.618;5.130;2022-11-25T07:56:11;7.80;99.90
48728;DHT22;34527;45.618;5.130;2022-11-25T07:58:37;7.80;99.90
48728;DHT22;34527;45.618;5.130;2022-11-25T08:01:09;7.90;99.90
48728;DHT22;34527;45.618;5.130;2022-11-25T08:03:37;7.90;99.90
48728;DHT22;34527;45.618;5.130;2022-11-25T08:06:05;8.00;99.90
48728;DHT22;34527;45.618;5.130;2022-11-25T08:08:32;8.00;99.90
48728;DHT22;34527;45.618;5.130;2022-11-25T08:10:58;8.00;99.90
48728;DHT22;34527;45.618;5.130;2022-11-25T08:13:24;8.10;99.90
48728;DHT22;34527;45.618;5.130;2022-11-25T08:15:50;8.10;99.90
48728;DHT22;34527;45.618;5.130;2022-11-25T08:18:16;8.20;99.90
48728;DHT22;34527;45.618;5.130;2022-11-25T08:20:43;8.20;99.90
48728;DHT22;34527;45.618;5.130;2022-11-25T08:23:09;8.20;99.90
48728;DHT22;34527;45.618;5.130;2022-11-25T08:25:39;8.20;99.90
48728;DHT22;34527;45.618;5.130;2022-11-25T08:28:05;8.30;99.90
48728;DHT22;34527;45.618;5.130;2022-11-25T08:30:32;8.30;99.90
48728;DHT22;34527;45.618;5.130;2022-11-25T08:32:59;8.30;99.90
48728;DHT22;34527;45.618;5.130;2022-11-25T08:35:25;8.40;99.90
48728;DHT22;34527;45.618;5.130;2022-11-25T08:37:52;8.50;99.90
48728;DHT22;34527;45.618;5.130;2022-11-25T08:40:18;8.60;99.90
48728;DHT22;34527;45.618;5.130;2022-11-25T08:42:44;8.60;99.90
48728;DHT22;34527;45.618;5.130;2022-11-25T08:45:10;8.80;99.90
48728;DHT22;34527;45.618;5.130;2022-11-25T08:47:37;8.90;99.90
48728;DHT22;34527;45.618;5.130;2022-11-25T08:50:11;9.00;99.90
48728;DHT22;34527;45.618;5.130;2022-11-25T08:52:38;9.10;99.90
48728;DHT22;34527;45.618;5.130;2022-11-25T08:55:05;9.20;99.90
48728;DHT22;34527;45.618;5.130;2022-11-25T08:57:31;9.20;99.90
48728;DHT22;34527;45.618;5.130;2022-11-25T08:59:57;9.30;99.90
48728;DHT22;34527;45.618;5.130;2022-11-25T09:02:23;9.30;99.90
48728;DHT22;34527;45.618;5.130;2022-11-25T09:04:49;9.30;99.90
48728;DHT22;34527;45.618;5.130;2022-11-25T09:07:15;9.40;99.90
48728;DHT22;34527;45.618;5.130;2022-11-25T09:09:41;9.50;99.90
48728;DHT22;34527;45.618;5.130;2022-11-25T09:12:07;9.60;99.90
48728;DHT22;34527;45.618;5.130;2022-11-25T09:14:33;9.70;99.90
48728;DHT22;34527;45.618;5.130;2022-11-25T09:16:59;9.80;99.90
48728;DHT22;34527;45.618;5.130;2022-11-25T09:19:26;9.90;99.90
48728;DHT22;34527;45.618;5.130;2022-11-25T09:21:52;9.90;99.90
48728;DHT22;34527;45.618;5.130;2022-11-25T09:24:19;10.00;99.90
48728;DHT22;34527;45.618;5.130;2022-11-25T09:26:45;10.00;99.90
48728;DHT22;34527;45.618;5.130;2022-11-25T09:29:12;10.10;99.90
48728;DHT22;34527;45.618;5.130;2022-11-25T09:31:38;10.10;99.90
48728;DHT22;34527;45.618;5.130;2022-11-25T09:34:05;10.10;99.90
48728;DHT22;34527;45.618;5.130;2022-11-25T09:36:32;10.20;99.90
48728;DHT22;34527;45.618;5.130;2022-11-25T09:38:58;10.20;99.90
48728;DHT22;34527;45.618;5.130;2022-11-25T09:52:52;10.20;99.90
48728;DHT22;34527;45.618;5.130;2022-11-25T09:55:23;10.20;99.90
48728;DHT22;34527;45.618;5.130;2022-11-25T09:58:00;10.30;99.90
48728;DHT22;34527;45.618;5.130;2022-11-25T10:00:40;10.40;99.90
48728;DHT22;34527;45.618;5.130;2022-11-25T10:05:42;10.60;99.90
48728;DHT22;34527;45.618;5.130;2022-11-25T10:22:36;10.50;99.90
48728;DHT22;34527;45.618;5.130;2022-11-25T10:25:14;10.60;99.90
48728;DHT22;34527;45.618;5.130;2022-11-25T10:32:45;10.50;99.90
48728;DHT22;34527;45.618;5.130;2022-11-25T10:35:25;10.40;99.90
48728;DHT22;34527;45.618;5.130;2022-11-25T10:37:55;10.40;99.90
48728;DHT22;34527;45.618;5.130;2022-11-25T10:40:22;10.50;99.90
48728;DHT22;34527;45.618;5.130;2022-11-25T10:42:48;10.50;99.90
48728;DHT22;34527;45.618;5.130;2022-11-25T10:45:14;10.60;99.90
48728;DHT22;34527;45.618;5.130;2022-11-25T10:48:06;10.70;99.90
48728;DHT22;34527;45.618;5.130;2022-11-25T10:56:03;10.80;99.90
48728;DHT22;34527;45.618;5.130;2022-11-25T10:58:35;10.80;99.90
48728;DHT22;34527;45.618;5.130;2022-11-25T11:01:14;10.90;99.90
48728;DHT22;34527;45.618;5.130;2022-11-25T11:03:43;10.90;99.90
48728;DHT22;34527;45.618;5.130;2022-11-25T11:06:32;10.90;99.90
48728;DHT22;34527;45.618;5.130;2022-11-25T11:09:00;11.00;99.90
48728;DHT22;34527;45.618;5.130;2022-11-25T11:11:26;11.00;99.90
48728;DHT22;34527;45.618;5.130;2022-11-25T11:14:18;11.10;99.90
48728;DHT22;34527;45.618;5.130;2022-11-25T11:16:52;11.00;99.90
48728;DHT22;34527;45.618;5.130;2022-11-25T11:19:27;11.00;99.90
48728;DHT22;34527;45.618;5.130;2022-11-25T11:21:53;10.90;99.90
48728;DHT22;34527;45.618;5.130;2022-11-25T11:24:30;10.90;99.90
48728;DHT22;34527;45.618;5.130;2022-11-25T11:27:22;10.80;99.90
48728;DHT22;34527;45.618;5.130;2022-11-25T11:30:12;10.80;99.90
48728;DHT22;34527;45.618;5.130;2022-11-25T11:32:42;10.80;99.90
48728;DHT22;34527;45.618;5.130;2022-11-25T11:35:49;10.90;99.90
48728;DHT22;34527;45.618;5.130;2022-11-25T11:38:25;11.00;99.90
48728;DHT22;34527;45.618;5.130;2022-11-25T11:41:15;11.10;99.90
48728;DHT22;34527;45.618;5.130;2022-11-25T11:43:56;11.10;99.90
48728;DHT22;34527;45.618;5.130;2022-11-25T11:49:08;11.10;99.90
48728;DHT22;34527;45.618;5.130;2022-11-25T11:52:09;11.00;99.90
48728;DHT22;34527;45.618;5.130;2022-11-25T11:54:48;11.00;99.90
48728;DHT22;34527;45.618;5.130;2022-11-25T11:59:48;11.00;99.90
48728;DHT22;34527;45.618;5.130;2022-11-25T12:02:23;11.00;99.90
48728;DHT22;34527;45.618;5.130;2022-11-25T12:07:33;11.10;99.90
48728;DHT22;34527;45.618;5.130;2022-11-25T12:12:55;11.20;99.90
48728;DHT22;34527;45.618;5.130;2022-11-25T12:19:06;11.00;99.90
48728;DHT22;34527;45.618;5.130;2022-11-25T12:27:39;10.90;99.90
48728;DHT22;34527;45.618;5.130;2022-11-25T12:30:14;10.80;99.90
48728;DHT22;34527;45.618;5.130;2022-11-25T12:38:08;10.60;99.90
48728;DHT22;34527;45.618;5.130;2022-11-25T12:43:59;10.50;99.90
48728;DHT22;34527;45.618;5.130;2022-11-25T12:46:38;10.50;99.90
48728;DHT22;34527;45.618;5.130;2022-11-25T12:49:26;10.40;99.90
48728;DHT22;34527;45.618;5.130;2022-11-25T12:52:29;10.40;99.90
48728;DHT22;34527;45.618;5.130;2022-11-25T13:14:26;9.90;99.90
48728;DHT22;34527;45.618;5.130;2022-11-25T13:16:53;9.90;99.90
48728;DHT22;34527;45.618;5.130;2022-11-25T13:19:22;9.80;99.90
48728;DHT22;34527;45.618;5.130;2022-11-25T13:22:05;9.70;99.90
48728;DHT22;34527;45.618;5.130;2022-11-25T13:24:56;9.70;99.90
48728;DHT22;34527;45.618;5.130;2022-11-25T13:27:30;9.70;99.90
48728;DHT22;34527;45.618;5.130;2022-11-25T13:29:57;9.70;99.90
48728;DHT22;34527;45.618;5.130;2022-11-25T13:32:29;9.70;99.90
48728;DHT22;34527;45.618;5.130;2022-11-25T13:37:47;9.80;99.90
48728;DHT22;34527;45.618;5.130;2022-11-25T13:42:51;9.90;99.90
48728;DHT22;34527;45.618;5.130;2022-11-25T13:45:34;9.90;99.90
48728;DHT22;34527;45.618;5.130;2022-11-25T13:48:19;9.90;99.90
48728;DHT22;34527;45.618;5.130;2022-11-25T13:50:46;9.90;99.90
48728;DHT22;34527;45.618;5.130;2022-11-25T13:53:48;9.90;99.90
48728;DHT22;34527;45.618;5.130;2022-11-25T14:01:37;9.90;99.90
48728;DHT22;34527;45.618;5.130;2022-11-25T14:04:12;9.80;99.90
48728;DHT22;34527;45.618;5.130;2022-11-25T14:07:02;9.80;99.90
48728;DHT22;34527;45.618;5.130;2022-11-25T14:12:46;9.80;99.90
48728;DHT22;34527;45.618;5.130;2022-11-25T14:15:43;9.80;99.90
48728;DHT22;34527;45.618;5.130;2022-11-25T14:18:39;9.80;99.90
48728;DHT22;34527;45.618;5.130;2022-11-25T14:21:40;9.90;99.90
48728;DHT22;34527;45.618;5.130;2022-11-25T14:24:42;9.90;99.90
48728;DHT22;34527;45.618;5.130;2022-11-25T14:27:18;9.90;99.90
48728;DHT22;34527;45.618;5.130;2022-11-25T14:29:54;9.80;99.90
48728;DHT22;34527;45.618;5.130;2022-11-25T14:32:23;9.80;99.90
48728;DHT22;34527;45.618;5.130;2022-11-25T14:34:59;9.80;99.90
48728;DHT22;34527;45.618;5.130;2022-11-25T14:37:32;9.80;99.90
48728;DHT22;34527;45.618;5.130;2022-11-25T14:42:36;9.80;99.90
48728;DHT22;34527;45.618;5.130;2022-11-25T14:45:19;9.80;99.90
48728;DHT22;34527;45.618;5.130;2022-11-25T14:47:45;9.80;99.90
48728;DHT22;34527;45.618;5.130;2022-11-25T14:50:13;9.80;99.90
48728;DHT22;34527;45.618;5.130;2022-11-25T14:52:40;9.80;99.90
48728;DHT22;34527;45.618;5.130;2022-11-25T14:55:22;9.80;99.90
48728;DHT22;34527;45.618;5.130;2022-11-25T14:57:49;9.70;99.90
48728;DHT22;34527;45.618;5.130;2022-11-25T15:00:17;9.70;99.90
48728;DHT22;34527;45.618;5.130;2022-11-25T15:05:23;9.70;99.90
48728;DHT22;34527;45.618;5.130;2022-11-25T15:08:14;9.70;99.90
48728;DHT22;34527;45.618;5.130;2022-11-25T15:10:54;9.60;99.90
48728;DHT22;34527;45.618;5.130;2022-11-25T15:13:36;9.60;99.90
48728;DHT22;34527;45.618;5.130;2022-11-25T15:16:11;9.70;99.90
48728;DHT22;34527;45.618;5.130;2022-11-25T15:18:46;9.60;99.90
48728;DHT22;34527;45.618;5.130;2022-11-25T15:21:15;9.60;99.90
48728;DHT22;34527;45.618;5.130;2022-11-25T15:23:41;9.60;99.90
48728;DHT22;34527;45.618;5.130;2022-11-25T15:26:19;9.70;99.90
48728;DHT22;34527;45.618;5.130;2022-11-25T15:28:46;9.60;99.90
48728;DHT22;34527;45.618;5.130;2022-11-25T15:31:19;9.60;99.90
48728;DHT22;34527;45.618;5.130;2022-11-25T15:33:49;9.60;99.90
48728;DHT22;34527;45.618;5.130;2022-11-25T15:36:16;9.60;99.90
48728;DHT22;34527;45.618;5.130;2022-11-25T15:38:44;9.60;99.90
48728;DHT22;34527;45.618;5.130;2022-11-25T15:41:36;9.60;99.90
48728;DHT22;34527;45.618;5.130;2022-11-25T15:44:05;9.60;99.90
48728;DHT22;34527;45.618;5.130;2022-11-25T15:46:34;9.50;99.90
48728;DHT22;34527;45.618;5.130;2022-11-25T15:49:03;9.50;99.90
48728;DHT22;34527;45.618;5.130;2022-11-25T15:51:50;9.50;99.90
48728;DHT22;34527;45.618;5.130;2022-11-25T15:56:48;9.50;99.90
48728;DHT22;34527;45.618;5.130;2022-11-25T15:59:35;9.60;99.90
48728;DHT22;34527;45.618;5.130;2022-11-25T16:02:02;9.50;99.90
48728;DHT22;34527;45.618;5.130;2022-11-25T16:04:28;9.50;99.90
48728;DHT22;34527;45.618;5.130;2022-11-25T16:06:55;9.50;99.90
48728;DHT22;34527;45.618;5.130;2022-11-25T16:09:23;9.50;99.90
48728;DHT22;34527;45.618;5.130;2022-11-25T16:11:50;9.50;99.90
48728;DHT22;34527;45.618;5.130;2022-11-25T16:14:26;9.50;99.90
48728;DHT22;34527;45.618;5.130;2022-11-25T16:17:01;9.50;99.90
48728;DHT22;34527;45.618;5.130;2022-11-25T16:19:32;9.40;99.90
48728;DHT22;34527;45.618;5.130;2022-11-25T16:22:01;9.40;99.90
48728;DHT22;34527;45.618;5.130;2022-11-25T16:24:34;9.40;99.90
48728;DHT22;34527;45.618;5.130;2022-11-25T16:27:23;9.30;99.90
48728;DHT22;34527;45.618;5.130;2022-11-25T16:32:32;9.30;99.90
48728;DHT22;34527;45.618;5.130;2022-11-25T16:35:18;9.20;99.90
48728;DHT22;34527;45.618;5.130;2022-11-25T16:37:46;9.20;99.90
48728;DHT22;34527;45.618;5.130;2022-11-25T16:40:14;9.20;99.90
48728;DHT22;34527;45.618;5.130;2022-11-25T16:42:40;9.20;99.90
48728;DHT22;34527;45.618;5.130;2022-11-25T16:45:19;9.20;99.90
48728;DHT22;34527;45.618;5.130;2022-11-25T16:47:45;9.20;99.90
48728;DHT22;34527;45.618;5.130;2022-11-25T16:50:15;9.20;99.90
48728;DHT22;34527;45.618;5.130;2022-11-25T16:52:42;9.20;99.90
48728;DHT22;34527;45.618;5.130;2022-11-25T16:55:08;9.20;99.90
48728;DHT22;34527;45.618;5.130;2022-11-25T16:57:34;9.30;99.90
48728;DHT22;34527;45.618;5.130;2022-11-25T17:00:03;9.30;99.90
48728;DHT22;34527;45.618;5.130;2022-11-25T17:02:33;9.30;99.90
48728;DHT22;34527;45.618;5.130;2022-11-25T17:05:23;9.30;99.90
48728;DHT22;34527;45.618;5.130;2022-11-25T17:07:50;9.30;99.90
48728;DHT22;34527;45.618;5.130;2022-11-25T17:10:17;9.30;99.90
48728;DHT22;34527;45.618;5.130;2022-11-25T17:12:44;9.30;99.90
48728;DHT22;34527;45.618;5.130;2022-11-25T17:15:21;9.30;99.90
48728;DHT22;34527;45.618;5.130;2022-11-25T17:17:49;9.30;99.90
48728;DHT22;34527;45.618;5.130;2022-11-25T17:20:20;9.40;99.90
48728;DHT22;34527;45.618;5.130;2022-11-25T17:22:47;9.30;99.90
48728;DHT22;34527;45.618;5.130;2022-11-25T17:25:13;9.40;99.90
48728;DHT22;34527;45.618;5.130;2022-11-25T17:27:39;9.40;99.90
48728;DHT22;34527;45.618;5.130;2022-11-25T17:30:19;9.40;99.90
48728;DHT22;34527;45.618;5.130;2022-11-25T17:32:46;9.40;99.90
48728;DHT22;34527;45.618;5.130;2022-11-25T17:35:19;9.40;99.90
48728;DHT22;34527;45.618;5.130;2022-11-25T17:37:46;9.40;99.90
48728;DHT22;34527;45.618;5.130;2022-11-25T17:40:13;9.30;99.90
48728;DHT22;34527;45.618;5.130;2022-11-25T17:42:40;9.30;99.90
48728;DHT22;34527;45.618;5.130;2022-11-25T17:45:13;9.30;99.90
48728;DHT22;34527;45.618;5.130;2022-11-25T17:47:40;9.30;99.90
48728;DHT22;34527;45.618;5.130;2022-11-25T17:50:19;9.30;99.90
48728;DHT22;34527;45.618;5.130;2022-11-25T17:52:46;9.30;99.90
48728;DHT22;34527;45.618;5.130;2022-11-25T17:55:12;9.30;99.90
48728;DHT22;34527;45.618;5.130;2022-11-25T17:57:38;9.20;99.90
48728;DHT22;34527;45.618;5.130;2022-11-25T18:00:09;9.20;99.90